Time;durP1;ratioP1;P1;durP2;ratioP2;P2;SDS_P1;SDS_P2;PMS_P1;PMS_P2;Temp;Humidity;BMP_temperature;BMP_pressure;BME280_temperature;BME280_humidity;BME280_pressure;Samples;Min_cycle;Max_cycle;Signal;HPM_P1;HPM_P2
2021/07/28 00:08:13;;;;;;;13.65;9.35;;;;;;;18.64;87.02;100182.97;20902426;28;20037;-69
2021/07/28 00:18:28;;;;;;;14.95;10.23;;;;;;;18.75;87.11;100181.59;20902711;28;20044;-69
2021/07/28 00:28:30;;;;;;;13.55;8.73;;;;;;;18.70;87.47;100177.38;20902161;28;20076;-69
2021/07/28 00:38:32;;;;;;;14.45;9.68;;;;;;;18.38;87.09;100178.16;20901225;28;20041;-70
2021/07/28 00:48:35;;;;;;;14.73;9.40;;;;;;;18.21;87.50;100184.34;20901915;28;20107;-69
2021/07/28 00:58:37;;;;;;;15.88;10.45;;;;;;;17.93;89.01;100180.41;20918259;28;20049;-69
2021/07/28 01:08:40;;;;;;;15.90;10.30;;;;;;;17.89;88.97;100170.06;20914776;28;20510;-69
2021/07/28 01:18:43;;;;;;;14.88;10.48;;;;;;;17.82;88.33;100179.22;20916290;28;20041;-69
2021/07/28 01:28:45;;;;;;;14.95;10.90;;;;;;;17.67;88.54;100170.19;20915742;28;20068;-70
2021/07/28 01:38:48;;;;;;;15.95;11.10;;;;;;;17.52;88.66;100166.50;20914619;28;20387;-70
2021/07/28 01:48:52;;;;;;;15.63;10.70;;;;;;;17.40;88.31;100177.69;20913824;28;20077;-70
2021/07/28 01:58:54;;;;;;;20.02;10.55;;;;;;;17.27;88.70;100172.13;20913693;28;20049;-70
2021/07/28 02:08:56;;;;;;;15.43;11.32;;;;;;;17.15;88.84;100172.66;20911911;28;20565;-70
2021/07/28 02:18:58;;;;;;;15.50;11.00;;;;;;;17.01;89.47;100159.22;20911727;28;20053;-70
2021/07/28 02:28:59;;;;;;;17.10;10.45;;;;;;;16.87;89.09;100167.81;20910676;28;20045;-69
2021/07/28 02:39:01;;;;;;;15.77;10.80;;;;;;;16.88;88.89;100182.75;20910096;28;20048;-69
2021/07/28 02:49:03;;;;;;;16.35;11.52;;;;;;;16.81;89.12;100179.50;20909050;28;20053;-70
2021/07/28 02:59:05;;;;;;;17.20;11.43;;;;;;;16.80;89.15;100169.84;20908854;28;20049;-70
2021/07/28 03:09:07;;;;;;;23.08;12.40;;;;;;;16.67;89.34;100161.59;20906504;28;20040;-70
2021/07/28 03:19:08;;;;;;;23.65;13.27;;;;;;;16.56;89.07;100165.63;20906320;28;20291;-70
2021/07/28 03:29:11;;;;;;;20.38;12.57;;;;;;;16.51;89.63;100173.75;20906736;28;20118;-70
2021/07/28 03:39:12;;;;;;;20.67;12.30;;;;;;;16.46;89.55;100188.97;20905277;28;20123;-70
2021/07/28 03:49:14;;;;;;;21.95;13.50;;;;;;;16.33;89.71;100171.91;20904573;28;20044;-69
2021/07/28 03:59:17;;;;;;;17.70;12.32;;;;;;;16.31;89.37;100157.94;20903960;28;20045;-69
2021/07/28 04:09:18;;;;;;;17.40;12.80;;;;;;;16.41;89.66;100169.81;20900660;28;20044;-70
2021/07/28 04:19:20;;;;;;;19.67;13.52;;;;;;;16.56;89.23;100169.13;20902565;28;20056;-70
2021/07/28 04:29:22;;;;;;;20.08;13.70;;;;;;;16.71;88.89;100169.38;20901600;28;20457;-70
2021/07/28 04:39:24;;;;;;;17.90;12.23;;;;;;;16.93;88.08;100173.69;20901110;28;20147;-70
2021/07/28 04:49:25;;;;;;;20.48;12.80;;;;;;;17.16;87.50;100172.63;20901465;28;20053;-70
2021/07/28 04:59:27;;;;;;;19.90;13.55;;;;;;;17.05;87.11;100182.81;20901067;28;20064;-70
2021/07/28 05:09:29;;;;;;;21.88;14.35;;;;;;;17.05;87.41;100188.13;20900569;28;20045;-70
2021/07/28 05:19:31;;;;;;;22.23;14.32;;;;;;;17.34;87.61;100196.50;20900933;28;20057;-70
2021/07/28 05:29:33;;;;;;;18.55;13.48;;;;;;;17.38;87.30;100180.41;20899852;28;20526;-70
2021/07/28 05:39:34;;;;;;;19.98;13.65;;;;;;;17.56;87.29;100193.69;20905424;28;20065;-70
2021/07/28 05:49:36;;;;;;;20.92;13.68;;;;;;;17.54;88.08;100183.19;20913838;28;20466;-70
2021/07/28 05:59:38;;;;;;;23.92;15.77;;;;;;;17.51;87.98;100190.41;20912613;28;20045;-69
2021/07/28 06:09:40;;;;;;;21.10;14.68;;;;;;;17.61;87.74;100197.84;20912209;28;20564;-69
2021/07/28 06:19:45;;;;;;;21.30;14.00;;;;;;;17.87;86.74;100201.03;20911313;28;20396;-69
2021/07/28 06:29:47;;;;;;;20.67;14.07;;;;;;;18.10;86.89;100205.19;20911039;28;20087;-69
2021/07/28 06:39:54;;;;;;;19.50;13.82;;;;;;;17.99;86.01;100196.94;20909247;28;20515;-69
2021/07/28 06:49:56;;;;;;;19.77;13.40;;;;;;;18.17;85.32;100206.63;20908286;28;20052;-69
2021/07/28 06:59:57;;;;;;;19.67;12.70;;;;;;;18.52;84.95;100196.88;20908307;28;20060;-69
2021/07/28 07:09:59;;;;;;;17.75;12.68;;;;;;;18.66;84.35;100198.81;20904808;28;20067;-69
2021/07/28 07:20:02;;;;;;;16.27;10.85;;;;;;;18.87;84.38;100196.84;20907682;28;20041;-69
2021/07/28 07:30:06;;;;;;;16.67;11.18;;;;;;;19.05;83.91;100214.44;20905509;28;20051;-71
2021/07/28 07:40:08;;;;;;;15.90;11.20;;;;;;;19.19;82.67;100211.03;20905680;28;20045;-70
2021/07/28 07:50:10;;;;;;;17.45;10.88;;;;;;;19.51;81.98;100182.72;20905241;28;20552;-70
2021/07/28 08:00:13;;;;;;;14.90;10.00;;;;;;;19.91;80.40;100185.78;20903622;28;20422;-71
2021/07/28 08:10:15;;;;;;;15.88;10.73;;;;;;;20.08;78.33;100188.34;20903654;28;20041;-71
2021/07/28 08:20:16;;;;;;;14.18;9.35;;;;;;;20.32;76.78;100185.19;20903034;28;20046;-71
2021/07/28 08:30:18;;;;;;;13.77;8.77;;;;;;;20.37;76.99;100199.06;20902542;28;20056;-70
2021/07/28 08:40:19;;;;;;;16.88;9.63;;;;;;;20.36;76.37;100200.84;20902655;28;20053;-72
2021/07/28 08:50:21;;;;;;;12.13;8.23;;;;;;;20.40;77.58;100209.50;20843361;23;20061;-70
2021/07/28 09:00:24;;;;;;;11.88;8.15;;;;;;;20.37;76.28;100213.19;20901741;28;20391;-70
2021/07/28 09:10:26;;;;;;;10.80;7.45;;;;;;;20.61;75.58;100213.56;20902738;28;20211;-70
2021/07/28 09:20:32;;;;;;;15.15;7.75;;;;;;;21.17;72.11;100206.53;20917716;28;20118;-70
2021/07/28 09:30:34;;;;;;;12.15;6.60;;;;;;;21.64;72.81;100213.34;20899042;28;20041;-70
2021/07/28 09:40:36;;;;;;;9.50;6.30;;;;;;;21.82;69.33;100213.13;20915176;28;20107;-70
2021/07/28 09:50:38;;;;;;;10.38;6.07;;;;;;;21.83;69.11;100190.84;20915146;28;20057;-72
2021/07/28 10:00:40;;;;;;;10.25;6.10;;;;;;;21.92;65.76;100192.91;20913269;28;20045;-69
2021/07/28 10:10:43;;;;;;;10.90;5.68;;;;;;;22.61;64.66;100191.78;20912739;28;20470;-69
2021/07/28 10:20:45;;;;;;;8.88;5.88;;;;;;;23.05;64.14;100187.88;20911598;28;20045;-71
2021/07/28 10:31:16;;;;;;;8.75;5.68;;;;;;;23.61;61.63;100172.22;20909893;28;20040;-71
2021/07/28 10:41:36;;;;;;;9.40;5.10;;;;;;;23.72;59.21;100156.28;20892956;28;20456;-70
2021/07/28 10:51:56;;;;;;;8.68;6.05;;;;;;;23.49;60.32;100159.75;20910359;28;20053;-70
2021/07/28 11:01:58;;;;;;;8.30;4.72;;;;;;;23.49;56.81;100157.09;20909314;28;20059;-70
2021/07/28 11:12:01;;;;;;;8.93;5.30;;;;;;;24.09;55.31;100156.16;20908454;28;20084;-70
2021/07/28 11:22:06;;;;;;;10.45;5.53;;;;;;;24.37;55.76;100164.81;20908688;28;20047;-70
2021/07/28 11:32:21;;;;;;;8.77;4.78;;;;;;;24.73;54.04;100147.72;20918499;28;20049;-70
2021/07/28 11:42:26;;;;;;;8.07;5.03;;;;;;;24.41;55.36;100131.47;20928778;28;20124;-69
2021/07/28 11:52:32;;;;;;;11.15;5.80;;;;;;;24.99;54.23;100114.34;20904118;28;20417;-71
2021/07/28 12:02:34;;;;;;;8.93;4.80;;;;;;;25.43;52.13;100109.06;20901661;28;20079;-72
2021/07/28 12:12:37;;;;;;;9.40;4.87;;;;;;;24.66;51.92;100109.00;20901300;28;20085;-70
2021/07/28 12:22:41;;;;;;;6.57;3.92;;;;;;;24.76;52.05;100115.31;20900539;28;20053;-70
2021/07/28 12:32:48;;;;;;;5.97;4.10;;;;;;;24.59;51.82;100127.38;20900647;28;20107;-72
2021/07/28 12:42:50;;;;;;;6.93;4.25;;;;;;;24.46;52.16;100119.44;20899232;28;20115;-70
2021/07/28 12:52:52;;;;;;;8.23;4.95;;;;;;;24.25;54.16;100111.25;20912547;28;20045;-69
2021/07/28 13:02:55;;;;;;;9.40;5.03;;;;;;;23.30;59.03;100145.06;20915837;28;20045;-69
2021/07/28 13:12:57;;;;;;;12.43;5.30;;;;;;;22.83;60.31;100144.91;20913362;28;20049;-70
2021/07/28 13:22:59;;;;;;;10.00;5.95;;;;;;;23.34;65.35;100175.09;20916058;28;20395;-70
2021/07/28 13:33:01;;;;;;;13.13;5.65;;;;;;;22.84;66.96;100198.19;20914099;28;20080;-69
2021/07/28 13:43:03;;;;;;;8.57;4.15;;;;;;;22.53;65.71;100186.13;20912321;28;20055;-69
2021/07/28 13:53:05;;;;;;;6.10;3.50;;;;;;;22.72;66.91;100156.34;20914144;28;20098;-70
2021/07/28 14:03:06;;;;;;;6.72;3.83;;;;;;;23.23;66.00;100156.28;20903453;28;20063;-69
2021/07/28 14:13:09;;;;;;;6.70;3.03;;;;;;;23.71;61.92;100167.91;20909075;28;20110;-70
2021/07/28 14:23:11;;;;;;;4.47;1.85;;;;;;;24.06;59.10;100156.41;20911187;28;20652;-70
2021/07/28 14:33:12;;;;;;;3.40;1.95;;;;;;;24.30;58.73;100149.19;20910184;28;20045;-71
2021/07/28 14:43:14;;;;;;;3.92;1.90;;;;;;;24.27;58.23;100154.78;20909948;28;20045;-70
2021/07/28 14:53:16;;;;;;;4.85;1.70;;;;;;;24.44;55.98;100139.28;20907125;28;20045;-72
2021/07/28 15:03:17;;;;;;;2.67;1.00;;;;;;;24.06;52.39;100151.06;20905884;28;20056;-72
2021/07/28 15:13:19;;;;;;;4.57;1.30;;;;;;;24.49;49.45;100139.78;20906596;28;20045;-70
2021/07/28 15:23:21;;;;;;;3.05;1.20;;;;;;;24.27;51.24;100141.41;20906221;28;20041;-72
2021/07/28 15:33:24;;;;;;;2.60;1.35;;;;;;;23.72;53.23;100153.59;20903931;28;20049;-70
2021/07/28 15:43:25;;;;;;;2.88;1.40;;;;;;;23.04;63.53;100163.00;20904866;28;20052;-70
2021/07/28 15:53:30;;;;;;;2.85;1.45;;;;;;;23.47;59.67;100148.31;20902596;28;20040;-69
2021/07/28 16:03:33;;;;;;;2.30;1.23;;;;;;;23.69;60.52;100153.81;20906656;28;20045;-70
2021/07/28 16:13:38;;;;;;;3.40;1.17;;;;;;;22.55;64.21;100170.84;20909665;28;20049;-70
2021/07/28 16:23:42;;;;;;;4.15;1.20;;;;;;;22.41;65.33;100155.81;20906347;28;20087;-69
2021/07/28 16:33:44;;;;;;;3.55;1.50;;;;;;;22.60;64.26;100149.19;20902148;28;20052;-70
2021/07/28 16:43:46;;;;;;;3.20;1.08;;;;;;;23.09;61.15;100145.75;20901869;28;20119;-69
2021/07/28 16:53:47;;;;;;;3.00;1.60;;;;;;;23.77;58.18;100140.75;20902927;28;20485;-69
2021/07/28 17:03:49;;;;;;;4.03;1.70;;;;;;;23.79;62.57;100146.81;20900666;28;20122;-69
2021/07/28 17:13:55;;;;;;;4.20;1.70;;;;;;;24.22;61.60;100154.28;20899917;28;20045;-69
2021/07/28 17:23:56;;;;;;;2.47;1.38;;;;;;;23.72;62.82;100147.41;20898788;28;20056;-69
2021/07/28 17:33:59;;;;;;;3.42;1.98;;;;;;;22.92;65.34;100157.66;20902367;28;20052;-70
2021/07/28 17:44:00;;;;;;;2.75;1.35;;;;;;;22.71;67.01;100150.16;20913528;28;20049;-70
2021/07/28 17:54:02;;;;;;;4.18;1.77;;;;;;;22.50;67.54;100165.00;20907037;28;20045;-70
2021/07/28 18:04:15;;;;;;;4.22;1.98;;;;;;;22.05;68.60;100160.97;20907409;28;20079;-70
2021/07/28 18:14:16;;;;;;;9.15;3.05;;;;;;;21.13;75.22;100207.72;20906076;28;20041;-69
2021/07/28 18:24:19;;;;;;;3.50;2.08;;;;;;;20.55;77.99;100168.69;20906358;28;20049;-69
2021/07/28 18:34:20;;;;;;;5.38;2.63;;;;;;;20.36;80.53;100197.31;20905503;28;20053;-69
2021/07/28 18:44:22;;;;;;;6.83;2.63;;;;;;;20.59;81.52;100195.97;20854415;28;1460384;-70
2021/07/28 18:54:24;;;;;;;3.75;2.00;;;;;;;20.36;79.32;100199.97;20908928;28;20053;-69
2021/07/28 19:04:27;;;;;;;7.60;2.20;;;;;;;20.15;78.92;100199.44;20906972;28;20457;-70
2021/07/28 19:14:29;;;;;;;4.53;2.75;;;;;;;19.59;82.43;100217.66;20906808;28;20049;-69
2021/07/28 19:24:31;;;;;;;6.18;3.05;;;;;;;19.47;83.69;100223.66;20904432;28;20091;-69
2021/07/28 19:34:33;;;;;;;5.97;2.90;;;;;;;19.34;83.19;100230.56;20905159;28;20101;-70
2021/07/28 19:44:34;;;;;;;4.82;2.60;;;;;;;19.29;83.18;100230.81;20904500;28;20507;-70
2021/07/28 19:54:36;;;;;;;4.25;2.60;;;;;;;19.17;83.05;100237.66;20903243;28;20049;-69
2021/07/28 20:04:38;;;;;;;4.82;2.65;;;;;;;19.10;82.69;100246.88;20902833;28;20075;-70
2021/07/28 20:14:40;;;;;;;5.43;2.80;;;;;;;18.95;82.65;100251.22;20884858;28;20053;-69
2021/07/28 20:24:42;;;;;;;6.10;3.08;;;;;;;18.67;82.34;100262.38;20940300;22;20052;-70
2021/07/28 20:34:48;;;;;;;6.22;2.63;;;;;;;18.56;82.37;100255.91;20902444;28;20052;-70
2021/07/28 20:44:51;;;;;;;7.22;2.78;;;;;;;18.44;83.09;100257.38;20903699;28;20426;-70
2021/07/28 20:54:54;;;;;;;6.43;2.80;;;;;;;18.34;82.40;100266.72;20903133;28;20049;-70
2021/07/28 21:04:57;;;;;;;5.03;3.10;;;;;;;18.25;82.18;100261.88;20900910;28;20592;-70
2021/07/28 21:14:58;;;;;;;7.03;2.85;;;;;;;18.14;81.82;100273.00;20916996;28;20049;-71
2021/07/28 21:25:00;;;;;;;6.32;2.70;;;;;;;18.06;82.48;100262.81;20917906;28;20144;-71
2021/07/28 21:35:02;;;;;;;5.90;2.72;;;;;;;17.99;80.34;100274.63;20915583;28;20463;-70
2021/07/28 21:55:37;;;;;;;5.35;2.83;;;;;;;17.78;79.82;100273.00;20892524;28;20417;-71
2021/07/28 22:05:39;;;;;;;4.78;2.60;;;;;;;17.59;81.11;100286.22;20913913;28;20128;-71
2021/07/28 22:15:40;;;;;;;5.28;2.80;;;;;;;17.38;81.45;100280.97;20912570;28;20405;-71
2021/07/28 22:25:42;;;;;;;5.45;2.85;;;;;;;17.20;81.87;100287.13;20911992;28;20056;-71
2021/07/28 22:35:44;;;;;;;5.80;2.70;;;;;;;17.07;81.42;100289.44;20910901;28;20049;-71
2021/07/28 22:45:47;;;;;;;5.30;2.70;;;;;;;16.92;82.22;100287.47;20910803;28;20045;-71
2021/07/28 22:55:48;;;;;;;5.68;3.00;;;;;;;16.78;81.98;100279.28;20909419;28;20045;-71
2021/07/28 23:16:06;;;;;;;7.70;3.90;;;;;;;16.48;83.11;100286.69;20908028;28;20049;-71
2021/07/28 23:26:08;;;;;;;6.10;3.25;;;;;;;16.41;83.18;100291.38;20906565;28;20068;-71
2021/07/28 23:36:12;;;;;;;7.63;3.40;;;;;;;16.51;81.67;100286.56;20905031;28;20049;-71
2021/07/28 23:46:14;;;;;;;7.85;3.88;;;;;;;16.40;82.57;100276.44;20905625;28;20057;-72
2021/07/28 23:56:18;;;;;;;5.35;3.17;;;;;;;16.26;82.74;100276.16;20905457;28;20079;-71
